createdAt,value
2018-04-25T03:26:50.885Z,97308.77
2018-04-25T03:29:26.309Z,97296.86
2018-04-25T03:32:01.998Z,97299.78
2018-04-25T03:34:34.454Z,97299.70
2018-04-25T03:37:09.988Z,97299.70
2018-04-25T03:39:47.280Z,97298.20
2018-04-25T03:51:24.655Z,97294.34
2018-04-25T03:54:09.402Z,97295.84
2018-04-25T03:56:51.410Z,97293.72
2018-04-25T03:59:27.193Z,97293.86
2018-04-25T04:02:00.217Z,97293.72
2018-04-25T04:07:48.397Z,97288.91
2018-04-25T04:10:20.964Z,97291.25
2018-04-25T04:12:56.028Z,97291.16
2018-04-25T04:18:35.449Z,97288.91
2018-04-25T04:24:03.255Z,97289.25
2018-04-25T04:26:36.737Z,97299.79
2018-04-25T04:29:16.012Z,97297.92
2018-04-25T04:35:12.101Z,97304.93
2018-04-25T04:42:04.439Z,97313.52
2018-04-25T04:44:34.629Z,97312.73
2018-04-25T04:47:15.031Z,97314.94
2018-04-25T04:49:49.887Z,97310.98
2018-04-25T04:52:29.463Z,97312.60
2018-04-25T04:55:24.772Z,97312.16
2018-04-25T04:57:59.048Z,97316.56
2018-04-25T05:03:25.058Z,97316.22
2018-04-25T05:05:59.941Z,97317.36
2018-04-25T05:08:35.508Z,97313.59
2018-04-25T05:11:17.069Z,97316.28
2018-04-25T05:14:00.843Z,97320.21
2018-04-25T05:16:35.779Z,97314.47
2018-04-25T05:19:09.388Z,97323.54
2018-04-25T05:21:49.695Z,97320.69
2018-04-25T05:24:21.507Z,97324.38
2018-04-25T05:27:01.887Z,97311.97
2018-04-25T05:29:49.577Z,97308.19
2018-04-25T05:32:32.007Z,97314.17
2018-04-25T05:35:06.383Z,97318.94
2018-04-25T05:51:56.663Z,97316.89
2018-04-25T05:54:38.021Z,97319.00
2018-04-25T05:57:24.678Z,97318.81
2018-04-25T06:00:11.592Z,97311.15
2018-04-25T06:02:56.533Z,97311.33
2018-04-25T06:21:03.564Z,97303.70
2018-04-25T06:23:39.091Z,97308.24
2018-04-25T06:50:35.114Z,97299.77
2018-04-25T06:53:28.951Z,97294.38
2018-04-25T06:56:05.357Z,97294.17
2018-04-25T06:58:40.708Z,97288.55
2018-04-25T07:01:19.275Z,97290.19
2018-04-25T07:04:07.943Z,97286.73
2018-04-25T07:06:55.366Z,97290.19
2018-04-25T07:09:41.713Z,97283.50
2018-04-25T07:12:14.309Z,97286.42
2018-04-25T07:14:48.190Z,97286.27
2018-04-25T07:17:37.151Z,97275.58
2018-04-25T07:20:18.233Z,97270.36
2018-04-25T07:23:00.131Z,97275.62
2018-04-25T07:28:39.914Z,97265.67
2018-04-25T07:33:59.700Z,97269.64
2018-04-25T08:01:50.865Z,97285.65
2018-04-25T09:36:33.067Z,97203.69
2018-04-25T09:42:11.084Z,97210.59
2018-04-25T09:50:08.365Z,97200.14
2018-04-25T09:52:40.551Z,97191.13
2018-04-25T09:55:16.284Z,97194.45
2018-04-25T09:57:50.831Z,97191.27
2018-04-25T10:00:19.980Z,97189.45
2018-04-25T10:03:01.791Z,97182.11
2018-04-25T10:05:31.347Z,97178.16
2018-04-25T10:08:06.977Z,97177.67
2018-04-25T10:10:37.236Z,97175.09
2018-04-25T10:13:13.915Z,97166.19
2018-04-25T10:15:52.628Z,97170.95
2018-04-25T10:18:23.913Z,97166.28
2018-04-25T10:20:52.907Z,97168.17
2018-04-25T10:23:21.742Z,97168.50
2018-04-25T10:25:51.065Z,97163.86
2018-04-25T10:28:26.200Z,97156.61
2018-04-25T10:48:22.283Z,97138.42
2018-04-25T12:12:51.991Z,97024.61
2018-04-25T12:34:55.501Z,97002.31
2018-04-25T12:45:10.976Z,96988.91
2018-04-25T13:28:58.934Z,96942.09
2018-04-25T13:31:32.320Z,96937.50
2018-04-25T13:34:15.821Z,96932.17
2018-04-25T13:36:46.431Z,96933.25
2018-04-25T13:39:19.827Z,96931.16
2018-04-25T13:41:50.582Z,96927.13
2018-04-25T13:45:11.673Z,96918.92
2018-04-25T13:48:05.761Z,96913.63
2018-04-25T13:50:58.077Z,96903.39
2018-04-25T13:53:27.461Z,96903.12
2018-04-25T13:56:28.003Z,96895.34
2018-04-25T14:02:15.564Z,96893.50
2018-04-25T14:25:14.192Z,96865.98
